Aeroporto :
LOGIN :

Iscrizione | Disclaimer

   EN    FR    IT 

 










Sommario :    VFR   VFR Marginale   IFR   IFR Intensivo   IFR Molto Intensivo
Visibilità : 
Base nubi : 
>= 8 km
>= 3000ft
5 / 8 km
1000 / 3000 ft
1500m / 5 km
500 / 1000 ft
800 / 1500m
200 / 500 ft
< 800m
< 200 ft
Simboli :   Temporali  Nebbia  Neve Forte  Precipitazioni Forti  Vento > 20 kt
SIGMETs :   Varie  Temporali  Ghiacco  Turbolenza  Onda orograficha  Ceneri Vulcaniche






- Altitudine del aeroporto : 32 ft
- Codice IATA : LKZ


EGUL - RAF Lakenheath

ULTIMO METAR :
  • 201156Z 14008KT 9999 SCT040 SCT250 08/02 A2992 RMK AO2A SLPNO 57013

METARs OBSOLETI :
  • 201056Z 14006KT 9999 CLR 07/02 A2994 RMK AO2A SLPNO 58005
  • 200956Z 12005KT 9999 SCT046 05/02 A2995 RMK AO2A SLPNO
  • 200856Z 13005KT 9999 SCT045 03/01 A2996 RMK AO2A SLPNO 53004

TAF TAF EGUL
Valido dal 20 a 05 ore il 21 a 11 ore UTC


200500Z 2005/2111 15006KT 9999 SCT045 QNH2996INS
BECMG 2008/2009 14006KT 9999 BKN030 QNH2995INS
BECMG 20013/2014 13010KT 9999 SCT030 QNH2994INS
BECMG 2105/2106 12010KT 9999 BKN015 QNH2970INS TX07/2012Z TN02/2006Z



MetMap, La meteo Aeronautica in un colpo d'occhio ! - Copyright ORBIFLY Dicembre 2007 - Disclaimer

ORBIFLY MET'MAP TEAM :

Programmazione e sviluppo : Alexandra Zaïnal
Concezione e sviluppo : Baudouin d'Aumeries
Co-Programmazione e sviluppo : Marc-Olivier Méhu
Supporto tecnico e logistico : Manuel Goepfert
Aiuto per la traduzione : Arnaldo La Scala

Contatto : metmap@orbifly.com




FONTI E CREDITI :

   NOAA